Time;durP1;ratioP1;P1;durP2;ratioP2;P2;SDS_P1;SDS_P2;PMS_P1;PMS_P2;Temp;Humidity;BMP_temperature;BMP_pressure;BME280_temperature;BME280_humidity;BME280_pressure;Samples;Min_cycle;Max_cycle;Signal;HPM_P1;HPM_P2
2023/06/25 00:01:22;;;;;;;14.52;10.80;;;;;;;23.05;63.43;102175.28;5030527;28;20044;-45
2023/06/25 00:03:47;;;;;;;15.15;10.43;;;;;;;23.07;63.46;102167.28;5030606;28;20124;-44
2023/06/25 00:06:13;;;;;;;15.45;10.70;;;;;;;23.08;63.63;102160.19;5031722;28;20500;-47
2023/06/25 00:08:38;;;;;;;14.75;10.25;;;;;;;23.06;63.90;102163.75;5033548;28;20045;-45
2023/06/25 00:11:03;;;;;;;14.50;10.25;;;;;;;23.09;64.14;102154.84;5033156;28;20033;-48
2023/06/25 00:13:29;;;;;;;15.90;10.50;;;;;;;23.13;63.50;102148.56;5032459;28;20029;-48
2023/06/25 00:15:54;;;;;;;15.00;10.40;;;;;;;23.15;63.97;102153.84;5033955;28;20120;-52
2023/06/25 00:18:19;;;;;;;19.00;11.48;;;;;;;23.15;63.90;102152.06;5032546;28;20039;-47
2023/06/25 00:20:46;;;;;;;20.20;11.35;;;;;;;23.14;63.97;102145.00;5029068;28;20049;-49
2023/06/25 00:23:12;;;;;;;21.70;11.32;;;;;;;23.18;63.81;102152.00;5030144;28;20048;-46
2023/06/25 00:25:37;;;;;;;18.17;11.00;;;;;;;23.16;63.95;102144.97;5036631;28;20034;-50
2023/06/25 00:28:08;;;;;;;16.58;11.05;;;;;;;23.19;63.86;102140.47;5035295;28;20028;-51
2023/06/25 00:30:33;;;;;;;16.95;9.73;;;;;;;23.17;63.74;102136.09;5036288;28;20037;-49
2023/06/25 00:32:58;;;;;;;19.52;11.93;;;;;;;23.14;64.31;102133.47;5030572;28;20033;-47
2023/06/25 00:35:27;;;;;;;19.73;11.73;;;;;;;23.12;64.59;102135.28;5029593;28;20033;-50
2023/06/25 00:38:00;;;;;;;17.60;10.45;;;;;;;23.14;64.47;102130.81;5029486;28;20036;-48
2023/06/25 00:40:26;;;;;;;15.85;10.45;;;;;;;23.09;64.58;102125.59;5027908;28;20485;-48
2023/06/25 00:42:58;;;;;;;15.57;10.55;;;;;;;23.10;64.55;102122.03;5030131;28;20080;-46
2023/06/25 00:45:26;;;;;;;15.07;9.68;;;;;;;23.12;64.18;102121.97;5029376;28;20431;-49
2023/06/25 00:47:52;;;;;;;14.88;9.60;;;;;;;23.05;64.54;102115.91;5029468;28;20087;-49
2023/06/25 00:50:25;;;;;;;17.70;10.73;;;;;;;23.04;64.32;102116.81;5029203;28;20041;-46
2023/06/25 00:52:51;;;;;;;18.27;11.00;;;;;;;23.13;64.39;102115.75;5030033;28;20034;-48
2023/06/25 00:55:17;;;;;;;16.92;10.57;;;;;;;23.13;64.31;102111.31;5029590;28;20034;-48
2023/06/25 00:57:43;;;;;;;15.98;9.95;;;;;;;23.15;63.95;102112.16;5029475;28;20347;-50
2023/06/25 01:00:14;;;;;;;17.95;10.80;;;;;;;23.12;64.39;102111.34;5028647;28;20022;-44
2023/06/25 01:03:02;;;;;;;15.05;9.70;;;;;;;23.11;64.33;102102.50;5029699;28;20069;-51
2023/06/25 01:05:58;;;;;;;14.70;9.70;;;;;;;23.10;64.27;102099.88;5029116;28;20036;-46
2023/06/25 01:08:28;;;;;;;15.82;9.73;;;;;;;23.10;64.07;102099.88;5029026;28;20045;-47
2023/06/25 01:10:55;;;;;;;15.70;9.85;;;;;;;23.08;64.14;102093.69;5029312;28;20040;-49
2023/06/25 01:13:20;;;;;;;16.38;10.43;;;;;;;23.05;64.47;102084.00;5029673;28;20076;-46
2023/06/25 01:15:46;;;;;;;14.63;9.55;;;;;;;23.03;64.46;102088.47;5029633;28;20143;-44
2023/06/25 01:18:13;;;;;;;13.38;8.88;;;;;;;23.03;64.24;102084.03;5029160;28;20041;-46
2023/06/25 01:20:40;;;;;;;15.15;9.45;;;;;;;23.03;64.47;102086.69;5031469;28;20407;-43
2023/06/25 01:23:06;;;;;;;13.95;9.15;;;;;;;23.03;64.72;102083.16;5029692;28;20040;-46
2023/06/25 01:25:34;;;;;;;14.68;9.60;;;;;;;22.99;64.69;102081.47;5030035;28;20030;-43
2023/06/25 01:28:00;;;;;;;14.68;9.25;;;;;;;23.03;64.90;102077.81;5032283;28;20036;-45
2023/06/25 01:30:27;;;;;;;15.80;9.98;;;;;;;22.98;64.65;102074.38;5033228;28;20399;-46
2023/06/25 01:32:52;;;;;;;17.17;10.38;;;;;;;22.99;65.26;102074.31;5033488;28;20026;-45
2023/06/25 01:35:18;;;;;;;15.00;9.90;;;;;;;22.99;65.13;102065.50;5032915;28;20045;-46
2023/06/25 01:37:43;;;;;;;16.27;9.48;;;;;;;22.95;65.27;102066.44;5032936;28;20090;-49
2023/06/25 01:40:09;;;;;;;16.08;9.25;;;;;;;22.93;65.63;102057.63;5032663;28;20026;-49
2023/06/25 01:42:35;;;;;;;15.60;9.40;;;;;;;22.92;65.40;102056.75;5032028;28;20508;-48
2023/06/25 01:45:01;;;;;;;16.10;9.35;;;;;;;22.92;65.35;102055.88;5033165;28;20033;-48
2023/06/25 01:47:26;;;;;;;16.20;9.40;;;;;;;22.88;65.44;102052.38;5031816;28;20514;-44
2023/06/25 01:49:52;;;;;;;13.63;8.98;;;;;;;22.89;65.76;102050.59;5032650;28;20052;-48
2023/06/25 01:52:17;;;;;;;16.98;10.32;;;;;;;22.87;65.50;102049.78;5032605;28;20067;-44
2023/06/25 01:54:43;;;;;;;15.63;9.93;;;;;;;22.81;65.80;102045.41;5032632;28;20034;-46
2023/06/25 01:57:08;;;;;;;14.20;9.35;;;;;;;22.83;65.58;102048.06;5032099;28;20056;-48
2023/06/25 01:59:34;;;;;;;15.32;9.60;;;;;;;22.82;65.53;102038.31;5032641;28;20403;-45
2023/06/25 02:02:01;;;;;;;13.07;8.57;;;;;;;22.81;65.76;102033.94;5032782;28;20376;-47
2023/06/25 02:04:26;;;;;;;14.88;9.65;;;;;;;22.81;65.80;102031.28;5032401;28;20095;-49
2023/06/25 02:06:52;;;;;;;13.32;8.90;;;;;;;22.83;65.74;102032.09;5032343;28;20096;-44
2023/06/25 02:09:17;;;;;;;14.48;8.75;;;;;;;22.81;65.57;102028.63;5032224;28;20037;-45
2023/06/25 02:11:42;;;;;;;14.68;8.77;;;;;;;22.77;66.26;102024.25;5032725;28;20034;-47
2023/06/25 02:14:08;;;;;;;13.57;8.70;;;;;;;22.79;65.89;102019.78;5032003;28;20045;-44
2023/06/25 02:16:33;;;;;;;14.02;9.07;;;;;;;22.80;65.71;102019.75;5031899;28;20041;-46
2023/06/25 02:18:58;;;;;;;13.40;8.45;;;;;;;22.76;66.07;102018.06;5032402;28;20030;-46
2023/06/25 02:21:24;;;;;;;12.75;8.10;;;;;;;22.75;66.31;102010.13;5032144;28;20029;-44
2023/06/25 02:23:49;;;;;;;13.23;8.40;;;;;;;22.72;66.30;102007.47;5032327;28;20030;-48
2023/06/25 02:26:15;;;;;;;13.70;8.57;;;;;;;22.73;66.25;102012.81;5031591;28;20037;-46
2023/06/25 02:28:40;;;;;;;13.40;8.75;;;;;;;22.69;66.39;102016.38;5032228;28;20040;-43
2023/06/25 02:31:05;;;;;;;12.88;8.23;;;;;;;22.69;66.69;102004.88;5031562;28;20068;-49
2023/06/25 02:33:31;;;;;;;14.25;8.60;;;;;;;22.68;66.68;102004.00;5032009;28;20139;-48
2023/06/25 02:35:56;;;;;;;14.45;8.77;;;;;;;22.65;66.98;102004.06;5032403;28;20033;-44
2023/06/25 02:38:22;;;;;;;13.95;8.88;;;;;;;22.64;66.81;101997.84;5029636;28;20038;-49
2023/06/25 02:40:47;;;;;;;15.02;8.82;;;;;;;22.62;66.61;101998.81;5031188;28;20022;-44
2023/06/25 02:43:13;;;;;;;13.45;8.30;;;;;;;22.62;66.82;101990.84;5032259;28;20443;-44
2023/06/25 02:45:38;;;;;;;13.98;8.90;;;;;;;22.62;67.03;101999.69;5032496;28;20056;-44
2023/06/25 02:48:04;;;;;;;12.55;8.35;;;;;;;22.56;67.63;101989.16;5031619;28;20491;-50
2023/06/25 02:50:29;;;;;;;13.70;9.20;;;;;;;22.61;67.44;101986.41;5031812;28;20036;-42
2023/06/25 02:52:54;;;;;;;12.35;8.45;;;;;;;22.68;67.38;101993.38;5031831;28;20496;-45
2023/06/25 02:55:20;;;;;;;14.52;9.05;;;;;;;22.69;67.20;101991.59;5031392;28;20061;-47
2023/06/25 02:57:45;;;;;;;15.10;8.77;;;;;;;22.67;67.32;101994.28;5031675;28;20033;-50
2023/06/25 03:00:11;;;;;;;12.65;7.70;;;;;;;22.67;67.31;101994.28;5031001;28;20037;-49
2023/06/25 03:02:36;;;;;;;16.50;9.55;;;;;;;22.65;67.41;101986.31;5032242;28;20487;-46
2023/06/25 03:05:01;;;;;;;15.82;9.73;;;;;;;22.51;67.97;101990.13;5033079;28;20061;-47
2023/06/25 03:07:27;;;;;;;14.73;9.68;;;;;;;22.58;68.60;101992.66;5031236;28;20168;-45
2023/06/25 03:09:52;;;;;;;14.48;9.40;;;;;;;22.69;68.44;101991.59;5031612;28;20038;-49
2023/06/25 03:12:17;;;;;;;13.40;8.60;;;;;;;22.70;68.24;101991.53;5030655;28;20044;-47
2023/06/25 03:14:43;;;;;;;14.00;9.40;;;;;;;22.66;68.08;101989.88;5029790;28;20040;-46
2023/06/25 03:17:08;;;;;;;14.07;9.32;;;;;;;22.68;68.39;101988.06;5030363;28;20033;-48
2023/06/25 03:19:34;;;;;;;14.45;8.93;;;;;;;22.69;67.93;101987.13;5031204;28;20436;-48
2023/06/25 03:21:59;;;;;;;15.77;9.57;;;;;;;22.67;67.94;101989.84;5031178;28;20025;-46
2023/06/25 03:24:25;;;;;;;15.57;9.52;;;;;;;22.60;68.16;101982.88;5030490;28;20091;-47
2023/06/25 03:26:50;;;;;;;15.15;9.95;;;;;;;22.62;68.42;101986.41;5030806;28;20080;-45
2023/06/25 03:29:16;;;;;;;14.73;9.27;;;;;;;22.65;68.00;101973.03;5030509;28;20030;-46
2023/06/25 03:31:41;;;;;;;16.15;10.20;;;;;;;22.65;68.36;101983.66;5031056;28;20044;-48
2023/06/25 03:34:07;;;;;;;15.18;9.48;;;;;;;22.65;68.46;101975.69;5030386;28;20041;-48
2023/06/25 03:36:32;;;;;;;15.48;9.45;;;;;;;22.67;68.47;101981.00;5030731;28;20040;-46
2023/06/25 03:38:58;;;;;;;15.77;9.57;;;;;;;22.69;68.23;101973.00;5031081;28;20564;-50
2023/06/25 03:41:23;;;;;;;14.00;8.73;;;;;;;22.70;68.25;101975.59;5030442;28;20454;-46
2023/06/25 03:43:49;;;;;;;15.93;9.38;;;;;;;22.72;68.35;101965.84;5031318;28;20033;-47
2023/06/25 03:46:14;;;;;;;13.43;8.70;;;;;;;22.73;68.17;101969.38;5030112;28;20048;-48
2023/06/25 03:48:43;;;;;;;16.83;9.80;;;;;;;22.70;68.35;101962.31;5031505;28;20040;-47
2023/06/25 03:51:09;;;;;;;15.55;9.20;;;;;;;22.73;68.61;101967.63;5029781;28;20053;-47
2023/06/25 03:53:35;;;;;;;14.90;9.27;;;;;;;22.78;68.25;101960.41;5030885;28;20491;-44
2023/06/25 03:56:00;;;;;;;14.55;8.65;;;;;;;22.84;68.35;101960.28;5030392;28;20040;-44
2023/06/25 03:58:25;;;;;;;14.15;9.07;;;;;;;22.82;68.01;101963.88;5030053;28;20099;-44
2023/06/25 04:00:51;;;;;;;14.73;9.10;;;;;;;22.86;67.99;101968.25;5028969;28;20042;-46
2023/06/25 04:03:16;;;;;;;14.63;8.38;;;;;;;22.89;67.89;101960.19;5029974;28;20044;-46
2023/06/25 04:05:42;;;;;;;16.88;10.02;;;;;;;22.87;68.21;101965.53;5030455;28;20132;-46
2023/06/25 04:08:07;;;;;;;14.57;9.02;;;;;;;22.96;68.05;101951.19;5029664;28;20539;-47
2023/06/25 04:10:32;;;;;;;16.17;9.90;;;;;;;22.74;68.44;101952.53;5029083;28;20048;-50
2023/06/25 04:12:58;;;;;;;17.58;9.70;;;;;;;23.04;67.63;101949.25;5030416;28;20112;-46
2023/06/25 04:15:23;;;;;;;17.45;9.90;;;;;;;23.00;67.31;101955.53;5029467;28;20037;-46
2023/06/25 04:17:48;;;;;;;14.98;9.15;;;;;;;23.01;67.20;101963.47;5029934;28;20044;-45
2023/06/25 04:20:14;;;;;;;14.18;9.90;;;;;;;23.00;67.10;101964.38;5029729;28;20662;-45
2023/06/25 04:22:39;;;;;;;13.15;8.63;;;;;;;23.11;67.34;101972.16;5029960;28;20034;-46
2023/06/25 04:25:05;;;;;;;14.85;9.25;;;;;;;23.16;66.97;101967.63;5029660;28;20037;-46
2023/06/25 04:27:31;;;;;;;17.55;9.90;;;;;;;23.19;66.79;101969.31;5029721;28;20060;-45
2023/06/25 04:29:56;;;;;;;15.15;9.43;;;;;;;23.27;66.63;101962.03;5029968;28;20033;-48
2023/06/25 04:32:21;;;;;;;17.48;10.88;;;;;;;23.02;66.55;101964.34;5029627;28;20045;-45
2023/06/25 04:34:47;;;;;;;14.82;10.35;;;;;;;23.34;65.17;101959.22;5029868;28;20041;-49
2023/06/25 04:37:12;;;;;;;16.38;9.32;;;;;;;23.49;64.55;101958.03;5029022;28;20033;-49
2023/06/25 04:39:41;;;;;;;15.45;9.50;;;;;;;23.49;64.61;101962.47;5029636;28;20029;-47
2023/06/25 04:42:06;;;;;;;16.95;10.43;;;;;;;23.54;63.96;101955.28;5029437;28;20080;-48
2023/06/25 04:44:32;;;;;;;15.50;9.75;;;;;;;23.71;63.79;101953.09;5029791;28;20132;-49
2023/06/25 04:46:58;;;;;;;15.65;9.82;;;;;;;23.69;63.73;101962.88;5029503;28;20030;-44
2023/06/25 04:49:23;;;;;;;15.82;10.30;;;;;;;23.74;63.06;101961.00;5029250;28;20095;-47
2023/06/25 04:51:49;;;;;;;16.52;10.38;;;;;;;23.77;63.06;101956.47;5029814;28;20025;-49
2023/06/25 04:54:14;;;;;;;17.00;10.95;;;;;;;23.62;62.78;101954.16;5029030;28;20091;-49
2023/06/25 04:56:40;;;;;;;16.15;10.68;;;;;;;23.63;62.41;101952.38;5029200;28;20078;-44
2023/06/25 04:59:05;;;;;;;17.70;10.55;;;;;;;23.88;61.29;101950.00;5029075;28;20029;-48
2023/06/25 05:01:31;;;;;;;16.38;10.73;;;;;;;23.84;61.36;101946.56;5029223;28;20030;-50
2023/06/25 05:03:56;;;;;;;15.50;10.50;;;;;;;24.04;60.33;101948.69;5029444;28;20405;-46
2023/06/25 05:06:22;;;;;;;15.13;10.30;;;;;;;24.42;59.23;101947.75;5028772;28;20507;-45
2023/06/25 05:08:47;;;;;;;18.48;9.90;;;;;;;24.57;59.22;101960.66;5029633;28;20080;-51
2023/06/25 05:11:12;;;;;;;16.02;10.30;;;;;;;24.67;59.07;101957.69;5029086;28;20041;-46
2023/06/25 05:13:38;;;;;;;17.95;10.60;;;;;;;24.87;59.03;101957.13;5028011;28;20542;-47
2023/06/25 05:16:04;;;;;;;15.38;10.55;;;;;;;25.83;55.73;101949.75;5028780;28;20136;-51
2023/06/25 05:18:29;;;;;;;18.98;11.80;;;;;;;26.96;51.79;101945.78;5029385;28;20133;-47
2023/06/25 05:20:55;;;;;;;16.25;10.55;;;;;;;28.94;45.39;101954.50;5029463;28;20124;-47
2023/06/25 05:23:20;;;;;;;16.85;11.77;;;;;;;30.48;41.18;101948.69;5028554;28;20037;-48
2023/06/25 05:25:45;;;;;;;15.50;10.32;;;;;;;31.63;39.36;101951.34;5028914;28;20033;-44
2023/06/25 05:28:11;;;;;;;15.23;11.15;;;;;;;31.53;38.46;101950.13;5029380;28;20068;-44
2023/06/25 05:30:36;;;;;;;16.67;10.45;;;;;;;33.00;36.12;101950.16;5029777;28;20458;-47
2023/06/25 05:33:02;;;;;;;14.60;10.65;;;;;;;33.26;34.79;101940.41;5029686;28;20041;-49
2023/06/25 05:35:28;;;;;;;13.63;10.18;;;;;;;33.69;34.00;101946.56;5029065;28;20460;-46
2023/06/25 05:37:54;;;;;;;14.20;10.02;;;;;;;34.75;31.19;101943.81;5030152;28;20030;-49
2023/06/25 05:40:20;;;;;;;12.98;9.45;;;;;;;35.32;30.34;101944.16;5030625;28;20036;-49
2023/06/25 05:42:45;;;;;;;14.15;9.98;;;;;;;34.77;30.82;101939.13;5031607;28;20048;-44
2023/06/25 05:45:10;;;;;;;16.73;10.52;;;;;;;33.94;31.75;101942.25;5032489;28;20041;-49
2023/06/25 05:47:36;;;;;;;11.43;8.50;;;;;;;35.58;29.30;101942.22;5032169;28;20041;-47
2023/06/25 05:50:01;;;;;;;11.90;8.30;;;;;;;35.47;29.93;101944.88;5029296;28;20025;-49
2023/06/25 05:52:26;;;;;;;15.07;9.98;;;;;;;34.32;31.29;101945.06;5029261;28;20037;-47
2023/06/25 05:54:52;;;;;;;13.48;8.70;;;;;;;34.97;30.29;101943.13;5031351;28;20030;-49
2023/06/25 05:57:18;;;;;;;14.05;9.75;;;;;;;35.64;29.35;101936.31;5032395;28;20395;-50
2023/06/25 05:59:43;;;;;;;11.85;8.45;;;;;;;35.36;30.36;101940.25;5032083;28;20029;-48
2023/06/25 06:02:09;;;;;;;11.80;8.30;;;;;;;36.28;28.16;101947.75;5029592;28;20072;-46
2023/06/25 06:04:35;;;;;;;11.50;8.73;;;;;;;35.29;29.56;101940.81;5029282;28;20056;-46
2023/06/25 06:07:01;;;;;;;12.60;9.00;;;;;;;36.08;28.44;101940.25;5028726;28;20108;-47
2023/06/25 06:09:27;;;;;;;10.65;7.55;;;;;;;37.09;27.13;101933.97;5028573;28;20112;-46
2023/06/25 06:11:52;;;;;;;10.63;8.55;;;;;;;37.63;26.04;101933.19;5029311;28;20059;-51
2023/06/25 06:14:17;;;;;;;9.88;7.60;;;;;;;38.17;24.76;101924.91;5032067;28;20128;-47
2023/06/25 06:16:43;;;;;;;10.57;7.55;;;;;;;37.92;25.18;101933.44;5033693;28;20078;-46
2023/06/25 06:19:08;;;;;;;12.77;8.43;;;;;;;35.79;28.08;101934.34;5031820;28;20471;-46
2023/06/25 06:21:33;;;;;;;13.23;8.50;;;;;;;35.71;28.65;101932.19;5032518;28;20034;-45
2023/06/25 06:23:59;;;;;;;10.40;8.15;;;;;;;37.58;25.36;101922.66;5032221;28;20060;-48
2023/06/25 06:26:24;;;;;;;10.63;8.40;;;;;;;37.68;25.24;101920.06;5031349;28;20060;-47
2023/06/25 06:28:49;;;;;;;9.88;7.13;;;;;;;38.21;24.79;101917.34;5032362;28;20045;-46
2023/06/25 06:31:16;;;;;;;13.38;8.43;;;;;;;37.92;24.93;101911.66;5031760;28;20183;-55
2023/06/25 06:33:42;;;;;;;11.45;7.35;;;;;;;37.12;26.68;101911.16;5032359;28;20036;-49
2023/06/25 06:36:08;;;;;;;9.93;6.97;;;;;;;37.02;26.06;101921.03;5031253;28;20034;-50
2023/06/25 06:38:33;;;;;;;9.88;7.00;;;;;;;38.02;24.83;101912.63;5031981;28;20396;-50
2023/06/25 06:40:59;;;;;;;10.80;7.25;;;;;;;37.70;25.56;101916.19;5031989;28;20026;-45
2023/06/25 06:43:24;;;;;;;12.23;7.43;;;;;;;38.39;23.86;101918.44;5031645;28;20029;-46
2023/06/25 06:45:49;;;;;;;11.10;7.93;;;;;;;37.25;24.95;101914.59;5032050;28;20026;-48
2023/06/25 06:48:15;;;;;;;9.65;7.30;;;;;;;37.08;25.72;101923.25;5030745;28;20048;-46
2023/06/25 06:50:40;;;;;;;14.05;7.57;;;;;;;37.85;24.45;101919.47;5031639;28;20037;-48
2023/06/25 06:53:05;;;;;;;8.38;6.65;;;;;;;37.88;24.65;101911.03;5031761;28;20127;-46
2023/06/25 06:55:32;;;;;;;10.45;7.40;;;;;;;38.86;22.51;101908.81;5031905;28;20040;-48
2023/06/25 06:57:58;;;;;;;9.93;6.50;;;;;;;38.93;22.98;101910.88;5031374;28;20108;-45
2023/06/25 07:00:23;;;;;;;8.52;6.38;;;;;;;38.76;23.21;101911.50;5031182;28;20128;-45
2023/06/25 07:02:48;;;;;;;10.85;6.78;;;;;;;38.89;22.95;101905.81;5031737;28;20404;-51
2023/06/25 07:05:14;;;;;;;8.65;6.45;;;;;;;38.78;22.86;101914.09;5031402;28;20103;-45
2023/06/25 07:07:40;;;;;;;10.25;6.80;;;;;;;38.65;23.07;101903.44;5031176;28;20110;-46
2023/06/25 07:10:06;;;;;;;9.30;6.70;;;;;;;39.02;22.30;101903.75;5030881;28;20540;-46
2023/06/25 07:12:32;;;;;;;8.88;5.68;;;;;;;39.95;21.72;101900.59;5031739;28;20038;-44
2023/06/25 07:14:57;;;;;;;9.88;5.72;;;;;;;39.72;21.10;101897.25;5032231;28;20112;-49
2023/06/25 07:17:24;;;;;;;9.15;6.22;;;;;;;38.90;22.51;101910.28;5031308;28;20079;-50
2023/06/25 07:19:49;;;;;;;8.73;5.90;;;;;;;37.55;24.18;101895.72;5031305;28;20029;-50
2023/06/25 07:22:15;;;;;;;7.28;5.50;;;;;;;39.15;21.68;101898.03;5030999;28;20135;-48
2023/06/25 07:24:40;;;;;;;7.07;5.20;;;;;;;37.98;23.17;101897.50;5029289;28;20045;-48
2023/06/25 07:27:06;;;;;;;5.32;3.97;;;;;;;38.92;21.75;101900.09;5029362;28;20040;-49
2023/06/25 07:29:31;;;;;;;9.40;5.60;;;;;;;38.62;21.86;101895.50;5031491;28;20038;-46
2023/06/25 07:31:56;;;;;;;6.95;5.20;;;;;;;39.18;21.60;101901.31;5031573;28;20032;-45
2023/06/25 07:34:22;;;;;;;9.48;5.18;;;;;;;38.22;22.66;101906.31;5030698;28;20124;-51
2023/06/25 07:36:48;;;;;;;9.48;5.13;;;;;;;39.35;21.39;101902.53;5030938;28;20423;-45
2023/06/25 07:39:24;;;;;;;7.47;4.90;;;;;;;39.96;20.20;101897.69;5030550;28;20037;-46
2023/06/25 07:41:49;;;;;;;6.97;4.80;;;;;;;39.47;21.66;101893.22;5031286;28;20518;-47
2023/06/25 07:44:14;;;;;;;7.15;4.50;;;;;;;38.64;22.96;101892.66;5030200;28;20037;-49
2023/06/25 07:46:40;;;;;;;8.13;5.20;;;;;;;39.69;21.13;101886.63;5030309;28;20080;-48
2023/06/25 07:49:05;;;;;;;8.75;5.55;;;;;;;37.78;23.05;101888.34;5030171;28;20068;-48
2023/06/25 07:51:30;;;;;;;8.23;5.05;;;;;;;39.80;20.20;101886.50;5030456;28;20068;-46
2023/06/25 07:53:56;;;;;;;5.85;4.68;;;;;;;39.02;22.10;101881.06;5030711;28;20033;-48
2023/06/25 07:56:21;;;;;;;6.22;4.20;;;;;;;39.02;21.92;101886.50;5029812;28;20111;-49
2023/06/25 07:58:46;;;;;;;11.50;4.90;;;;;;;39.16;21.02;101886.97;5030811;28;20124;-51
2023/06/25 08:01:12;;;;;;;6.43;4.50;;;;;;;39.21;21.80;101889.28;5030163;28;20079;-50
2023/06/25 08:03:37;;;;;;;6.18;4.72;;;;;;;37.97;22.95;101883.03;5030591;28;20052;-45
2023/06/25 08:06:02;;;;;;;8.15;5.53;;;;;;;37.53;23.16;101877.78;5029894;28;20033;-45
2023/06/25 08:08:28;;;;;;;6.85;4.68;;;;;;;38.36;22.20;101877.88;5030047;28;20377;-47
2023/06/25 08:10:53;;;;;;;5.28;3.33;;;;;;;40.24;18.99;101873.22;5030365;28;20428;-45
2023/06/25 08:13:20;;;;;;;4.43;3.20;;;;;;;38.48;19.44;101866.78;5029567;28;20408;-51
2023/06/25 08:15:45;;;;;;;5.38;4.05;;;;;;;35.75;23.33;101870.41;5030352;28;20439;-46
2023/06/25 08:18:10;;;;;;;5.00;3.60;;;;;;;37.06;22.22;101869.00;5029552;28;20069;-47
2023/06/25 08:20:36;;;;;;;5.25;2.90;;;;;;;37.31;21.71;101868.72;5030295;28;20029;-46
2023/06/25 08:23:01;;;;;;;4.35;3.60;;;;;;;37.20;20.71;101865.16;5030093;28;20037;-47
2023/06/25 08:25:27;;;;;;;5.57;3.33;;;;;;;38.21;21.32;101861.00;5028587;28;20083;-48
2023/06/25 08:27:52;;;;;;;4.95;3.65;;;;;;;40.27;18.57;101859.25;5029716;28;20029;-52
2023/06/25 08:30:18;;;;;;;5.10;3.78;;;;;;;40.52;18.41;101851.25;5029155;28;20612;-46
2023/06/25 08:32:44;;;;;;;5.72;3.60;;;;;;;39.15;20.32;101855.25;5029962;28;20039;-49
2023/06/25 08:35:09;;;;;;;5.05;3.50;;;;;;;36.95;20.95;101859.00;5029418;28;20029;-45
2023/06/25 08:37:35;;;;;;;4.55;3.38;;;;;;;34.60;23.71;101858.19;5029350;28;20048;-44
2023/06/25 08:40:01;;;;;;;6.22;3.40;;;;;;;34.56;24.94;101860.25;5029874;28;20511;-45
2023/06/25 08:42:28;;;;;;;6.40;3.50;;;;;;;36.23;22.99;101852.19;5029527;28;20029;-49
2023/06/25 08:44:55;;;;;;;5.43;3.80;;;;;;;36.44;21.54;101853.19;5029485;28;20025;-46
2023/06/25 08:47:29;;;;;;;7.63;3.42;;;;;;;35.74;23.94;101847.00;5028925;28;20095;-45
2023/06/25 08:49:55;;;;;;;5.68;3.83;;;;;;;34.99;23.84;101843.63;5028413;28;20034;-47
2023/06/25 08:52:20;;;;;;;4.65;3.53;;;;;;;34.97;23.74;101837.44;5027104;28;20060;-46
2023/06/25 08:54:46;;;;;;;7.35;3.95;;;;;;;34.55;24.05;101842.28;5029653;28;20376;-46
2023/06/25 08:57:12;;;;;;;4.72;3.70;;;;;;;34.52;24.53;101845.19;5028854;28;20518;-53
2023/06/25 08:59:37;;;;;;;7.10;3.33;;;;;;;34.02;24.32;101842.47;5028506;28;20030;-47
2023/06/25 09:02:03;;;;;;;4.07;2.85;;;;;;;34.33;23.85;101839.38;5029945;28;20053;-46
2023/06/25 09:04:28;;;;;;;3.95;3.10;;;;;;;34.39;23.81;101830.81;5028814;28;20041;-53
2023/06/25 09:06:54;;;;;;;4.00;3.20;;;;;;;33.87;23.75;101828.16;5029334;28;20084;-45
2023/06/25 09:09:19;;;;;;;4.97;3.20;;;;;;;34.27;24.13;101828.13;5028675;28;20491;-45
2023/06/25 09:11:44;;;;;;;5.15;3.50;;;;;;;33.34;25.41;101829.97;5029435;28;20498;-48
2023/06/25 09:14:10;;;;;;;3.75;3.15;;;;;;;32.84;24.48;101830.56;5029143;28;20081;-47
2023/06/25 09:16:49;;;;;;;4.78;3.35;;;;;;;33.23;23.77;101826.25;5028750;28;20087;-47
2023/06/25 09:19:18;;;;;;;5.28;3.53;;;;;;;33.10;24.02;101826.16;5029112;28;20589;-53
2023/06/25 09:21:44;;;;;;;4.47;3.03;;;;;;;33.48;24.10;101828.19;5029525;28;20041;-48
2023/06/25 09:24:15;;;;;;;5.32;3.00;;;;;;;33.79;24.43;101820.56;5028874;28;20034;-50
2023/06/25 09:26:47;;;;;;;4.20;2.95;;;;;;;34.06;23.29;101819.63;5029194;28;20496;-47
2023/06/25 09:29:13;;;;;;;5.65;3.08;;;;;;;33.43;22.97;101821.22;5028956;28;20034;-50
2023/06/25 09:31:43;;;;;;;4.00;2.90;;;;;;;32.39;24.24;101828.91;5029503;28;20049;-45
2023/06/25 09:34:09;;;;;;;5.90;3.10;;;;;;;31.84;24.85;101826.91;5029038;28;20037;-51
2023/06/25 09:36:35;;;;;;;4.13;3.00;;;;;;;31.97;24.89;101824.31;5029354;28;20566;-50
2023/06/25 09:39:02;;;;;;;4.30;2.90;;;;;;;32.45;24.28;101825.00;5030120;28;20029;-48
2023/06/25 09:41:28;;;;;;;5.07;3.10;;;;;;;32.94;24.19;101822.72;5029315;28;20522;-47
2023/06/25 09:43:56;;;;;;;3.75;2.90;;;;;;;33.18;23.44;101817.56;5029775;28;20037;-45
2023/06/25 09:46:22;;;;;;;5.50;3.20;;;;;;;33.33;22.96;101811.13;5029006;28;20768;-46
2023/06/25 09:48:51;;;;;;;5.03;3.05;;;;;;;33.47;24.38;101810.22;5031238;28;20029;-48
2023/06/25 09:51:19;;;;;;;4.72;3.30;;;;;;;33.70;22.90;101813.09;5032653;28;20045;-45
2023/06/25 09:53:50;;;;;;;3.90;3.20;;;;;;;32.79;23.89;101805.69;5032950;28;20041;-44
2023/06/25 09:56:17;;;;;;;5.82;2.95;;;;;;;33.52;23.92;101797.25;5033138;28;20048;-44
2023/06/25 09:58:43;;;;;;;4.32;3.10;;;;;;;33.74;23.46;101795.69;5033269;28;20036;-47
2023/06/25 10:01:09;;;;;;;4.65;3.20;;;;;;;33.29;23.14;101796.97;5031450;28;20041;-45
2023/06/25 10:03:35;;;;;;;4.80;3.15;;;;;;;33.51;22.62;101793.66;5033279;28;20056;-48
2023/06/25 10:06:02;;;;;;;6.45;3.60;;;;;;;33.14;23.92;101794.38;5034004;28;20097;-46
2023/06/25 10:08:27;;;;;;;6.28;3.20;;;;;;;33.21;24.16;101801.16;5033647;28;20439;-49
2023/06/25 10:10:58;;;;;;;3.95;2.90;;;;;;;33.65;24.85;101788.19;5033672;28;20029;-47
2023/06/25 10:13:23;;;;;;;4.82;3.20;;;;;;;33.78;24.33;101794.53;5031466;28;20128;-45
2023/06/25 10:15:56;;;;;;;5.13;3.20;;;;;;;32.76;24.64;101795.06;5031625;28;20548;-47
2023/06/25 10:18:23;;;;;;;5.85;3.03;;;;;;;32.92;24.63;101776.91;5032705;28;20597;-46
2023/06/25 10:20:49;;;;;;;4.00;2.92;;;;;;;32.88;25.07;101780.75;5032152;28;20030;-45
2023/06/25 10:23:21;;;;;;;4.32;2.83;;;;;;;33.57;24.40;101779.72;5031639;28;20128;-44
2023/06/25 10:25:54;;;;;;;4.47;3.10;;;;;;;33.10;24.08;101785.63;5032228;28;20396;-49
2023/06/25 10:28:28;;;;;;;4.72;3.30;;;;;;;32.51;24.93;101774.16;5030685;28;20038;-47
2023/06/25 10:30:53;;;;;;;5.38;3.30;;;;;;;33.28;24.09;101764.63;5032508;28;20534;-46
2023/06/25 10:33:19;;;;;;;5.55;3.33;;;;;;;33.53;23.85;101764.69;5031862;28;20061;-45
2023/06/25 10:35:54;;;;;;;3.45;3.00;;;;;;;33.74;23.93;101767.78;5032245;28;20041;-52
2023/06/25 10:38:20;;;;;;;4.18;3.10;;;;;;;33.36;23.96;101756.88;5031152;28;20416;-47
2023/06/25 10:40:46;;;;;;;4.07;3.05;;;;;;;33.35;25.22;101756.03;5032143;28;20034;-48
2023/06/25 10:43:19;;;;;;;4.55;3.35;;;;;;;33.50;24.16;101753.22;5031502;28;20037;-45
2023/06/25 10:45:56;;;;;;;4.28;3.20;;;;;;;34.11;23.37;101752.50;5032067;28;20030;-49
2023/06/25 10:48:22;;;;;;;4.10;3.25;;;;;;;33.53;23.59;101748.47;5031393;28;20061;-51
2023/06/25 10:50:48;;;;;;;4.45;3.25;;;;;;;34.16;23.55;101742.22;5031918;28;20084;-48
2023/06/25 10:53:19;;;;;;;4.95;3.30;;;;;;;34.26;24.08;101742.47;5031670;28;20049;-46
2023/06/25 10:55:49;;;;;;;7.55;3.50;;;;;;;34.33;23.62;101739.22;5031870;28;20034;-47
2023/06/25 10:58:16;;;;;;;4.70;3.50;;;;;;;34.35;23.27;101741.78;5030829;28;20038;-45
2023/06/25 11:00:43;;;;;;;5.03;3.65;;;;;;;34.48;23.59;101743.50;5031335;28;20080;-49
2023/06/25 11:03:08;;;;;;;5.50;3.50;;;;;;;34.41;23.43;101730.50;5031165;28;20040;-49
2023/06/25 11:05:39;;;;;;;5.15;3.40;;;;;;;34.66;22.91;101729.56;5031872;28;20059;-46
2023/06/25 11:08:06;;;;;;;3.63;3.22;;;;;;;34.28;22.79;101724.28;5030764;28;20092;-47
2023/06/25 11:10:32;;;;;;;5.78;3.40;;;;;;;34.38;22.90;101722.63;5031193;28;20060;-46
2023/06/25 11:13:00;;;;;;;5.68;3.65;;;;;;;33.93;22.99;101721.34;5031678;28;20132;-46
2023/06/25 11:15:30;;;;;;;5.68;3.70;;;;;;;33.87;24.35;101728.06;5030867;28;20026;-46